createdAt,value
2022-09-06T00:00:21.862Z,14.93
2022-09-06T00:02:52.239Z,19.83
2022-09-06T00:05:22.834Z,23.42
2022-09-06T00:07:53.122Z,16.35
2022-09-06T00:10:23.592Z,12.40
2022-09-06T00:12:54.090Z,18.60
2022-09-06T00:15:27.540Z,13.43
2022-09-06T00:20:28.099Z,20.80
2022-09-06T00:23:02.015Z,15.77
2022-09-06T00:25:33.448Z,14.23
2022-09-06T00:28:06.241Z,15.98
2022-09-06T00:30:40.728Z,11.52
2022-09-06T00:33:11.504Z,11.02
2022-09-06T00:35:41.852Z,14.80
2022-09-06T00:38:12.390Z,12.07
2022-09-06T00:40:42.839Z,13.27
2022-09-06T00:43:13.121Z,16.33
2022-09-06T00:45:46.969Z,17.33
2022-09-06T00:48:18.718Z,15.93
2022-09-06T00:50:51.277Z,11.13
2022-09-06T00:53:23.030Z,15.35
2022-09-06T00:55:53.311Z,11.20
2022-09-06T00:58:24.056Z,14.80
2022-09-06T01:00:57.696Z,9.82
2022-09-06T01:03:29.550Z,11.93
2022-09-06T01:06:09.706Z,13.57
2022-09-06T01:08:53.065Z,13.05
2022-09-06T01:11:44.687Z,9.65
2022-09-06T01:14:25.539Z,9.02
2022-09-06T01:17:06.329Z,11.52
2022-09-06T01:20:09.787Z,10.98
2022-09-06T01:23:00.635Z,10.73
2022-09-06T01:25:39.813Z,15.68
2022-09-06T01:28:33.478Z,7.55
2022-09-06T01:31:21.642Z,17.02
2022-09-06T01:33:59.739Z,7.45
2022-09-06T01:36:33.844Z,9.25
2022-09-06T01:39:04.917Z,10.55
2022-09-06T01:41:36.406Z,8.23
2022-09-06T01:44:09.580Z,9.30
2022-09-06T01:46:47.702Z,10.25
2022-09-06T01:49:33.406Z,10.88
2022-09-06T01:52:16.158Z,9.75
2022-09-06T01:55:08.143Z,13.07
2022-09-06T01:58:06.199Z,11.35
2022-09-06T02:00:46.606Z,8.68
2022-09-06T02:03:28.620Z,10.27
2022-09-06T02:06:03.262Z,17.85
2022-09-06T02:08:39.050Z,16.55
2022-09-06T02:11:11.761Z,23.52
2022-09-06T02:13:46.532Z,22.50
2022-09-06T02:16:23.211Z,25.83
2022-09-06T02:18:57.523Z,19.10
2022-09-06T02:21:33.260Z,24.95
2022-09-06T02:24:10.992Z,19.50
2022-09-06T02:26:46.544Z,27.30
2022-09-06T02:29:17.141Z,29.60
2022-09-06T02:31:55.136Z,12.70
2022-09-06T02:34:25.707Z,14.23
2022-09-06T02:36:57.638Z,13.57
2022-09-06T02:39:28.200Z,16.10
2022-09-06T02:41:58.847Z,16.17
2022-09-06T02:44:29.215Z,14.45
2022-09-06T02:47:03.833Z,26.45
2022-09-06T02:49:34.795Z,15.40
2022-09-06T02:52:05.444Z,21.35
2022-09-06T02:54:35.757Z,21.20
2022-09-06T02:57:06.284Z,17.42
2022-09-06T02:59:36.631Z,18.25
2022-09-06T03:02:11.018Z,15.48
2022-09-06T03:04:43.263Z,14.70
2022-09-06T03:07:14.385Z,17.20
2022-09-06T03:09:44.648Z,14.77
2022-09-06T03:12:15.464Z,15.32
2022-09-06T03:14:45.615Z,13.32
2022-09-06T03:17:18.979Z,13.10
2022-09-06T03:19:49.968Z,14.57
2022-09-06T03:22:28.513Z,15.45
2022-09-06T03:25:00.939Z,9.30
2022-09-06T03:27:31.849Z,25.52
2022-09-06T03:30:05.587Z,20.38
2022-09-06T03:32:38.407Z,14.43
2022-09-06T03:35:12.793Z,14.60
2022-09-06T03:37:42.977Z,18.95
2022-09-06T03:40:14.717Z,15.70
2022-09-06T03:42:46.687Z,19.10
2022-09-06T03:45:17.297Z,18.52
2022-09-06T03:48:06.340Z,18.38
2022-09-06T03:50:36.520Z,19.38
2022-09-06T03:53:08.065Z,21.17
2022-09-06T03:55:38.359Z,23.23
2022-09-06T03:58:11.071Z,26.35
2022-09-06T04:00:41.657Z,19.87
2022-09-06T04:03:15.461Z,24.00
2022-09-06T04:05:48.668Z,19.48
2022-09-06T04:08:18.779Z,20.27
2022-09-06T04:10:52.222Z,35.45
2022-09-06T04:13:23.276Z,16.60
2022-09-06T04:15:53.776Z,16.48
2022-09-06T04:18:27.705Z,15.30
2022-09-06T04:20:58.994Z,17.45
2022-09-06T04:23:31.116Z,18.92
2022-09-06T04:26:02.399Z,52.50
2022-09-06T04:28:33.142Z,77.82
2022-09-06T04:31:05.324Z,62.13
2022-09-06T04:33:39.581Z,44.63
2022-09-06T04:36:12.043Z,25.92
2022-09-06T04:38:43.643Z,19.80
2022-09-06T04:41:15.877Z,26.48
2022-09-06T04:43:46.158Z,19.05
2022-09-06T04:46:25.034Z,28.58
2022-09-06T04:49:01.587Z,41.13
2022-09-06T04:51:32.794Z,30.67
2022-09-06T04:54:03.287Z,21.25
2022-09-06T04:56:33.503Z,24.92
2022-09-06T04:59:04.293Z,19.95
2022-09-06T05:01:34.499Z,26.92
2022-09-06T05:04:07.951Z,23.58
2022-09-06T05:06:40.183Z,26.15
2022-09-06T05:09:12.054Z,16.60
2022-09-06T05:11:42.184Z,23.27
2022-09-06T05:14:13.465Z,20.10
2022-09-06T05:16:45.533Z,26.20
2022-09-06T05:19:19.420Z,13.25
2022-09-06T05:21:52.585Z,19.15
2022-09-06T05:24:23.398Z,15.05
2022-09-06T05:26:53.779Z,19.10
2022-09-06T05:29:26.519Z,18.50
2022-09-06T05:32:00.282Z,20.08
2022-09-06T05:34:33.539Z,21.80
2022-09-06T05:37:03.761Z,16.80
2022-09-06T05:39:33.996Z,15.23
2022-09-06T05:42:06.776Z,21.08
2022-09-06T05:44:37.582Z,19.63
2022-09-06T05:47:07.984Z,18.42
2022-09-06T05:49:40.791Z,20.20
2022-09-06T05:52:11.576Z,20.27
2022-09-06T05:54:41.760Z,25.23
2022-09-06T05:57:11.937Z,25.08
2022-09-06T05:59:42.265Z,22.63
2022-09-06T06:02:12.528Z,25.13
2022-09-06T06:04:45.604Z,16.77
2022-09-06T06:07:15.971Z,15.40
2022-09-06T06:09:46.262Z,13.73
2022-09-06T06:12:16.430Z,26.35
2022-09-06T06:14:46.644Z,24.50
2022-09-06T06:17:16.806Z,11.55
2022-09-06T06:19:49.597Z,21.63
2022-09-06T06:22:19.959Z,13.60
2022-09-06T06:24:50.399Z,15.45
2022-09-06T06:27:20.649Z,22.42
2022-09-06T06:29:51.035Z,28.58
2022-09-06T06:32:21.453Z,20.98
2022-09-06T06:34:54.519Z,21.60
2022-09-06T06:37:24.736Z,19.13
2022-09-06T06:39:54.997Z,25.23
2022-09-06T06:42:25.326Z,20.60
2022-09-06T06:44:57.300Z,25.17
2022-09-06T06:47:27.441Z,41.17
2022-09-06T06:50:00.277Z,26.55
2022-09-06T06:52:30.808Z,24.40
2022-09-06T06:55:01.212Z,18.63
2022-09-06T06:57:31.849Z,17.95
2022-09-06T07:00:03.366Z,13.63
2022-09-06T07:02:33.586Z,37.60
2022-09-06T07:07:57.312Z,31.58
2022-09-06T07:10:35.349Z,24.40
2022-09-06T07:13:05.672Z,31.85
2022-09-06T07:15:35.910Z,31.98
2022-09-06T07:18:07.048Z,28.38
2022-09-06T07:26:22.540Z,24.20
2022-09-06T07:28:55.868Z,36.63
2022-09-06T07:34:17.855Z,31.58
2022-09-06T07:36:51.335Z,34.63
2022-09-06T07:39:21.842Z,13.52
2022-09-06T07:41:52.720Z,17.73
2022-09-06T07:44:23.348Z,25.20
2022-09-06T07:46:53.757Z,24.38
2022-09-06T07:49:24.134Z,32.42
2022-09-06T07:51:57.563Z,21.25
2022-09-06T07:54:30.835Z,20.88
2022-09-06T07:57:01.706Z,17.55
2022-09-06T07:59:32.224Z,25.45
2022-09-06T08:02:02.619Z,24.10
2022-09-06T08:04:34.683Z,29.20
2022-09-06T08:09:58.568Z,27.75
2022-09-06T08:12:29.493Z,15.13
2022-09-06T08:15:01.032Z,24.38
2022-09-06T08:17:36.616Z,31.38
2022-09-06T08:20:08.885Z,27.50
2022-09-06T08:22:42.960Z,34.20
2022-09-06T08:25:13.512Z,43.85
2022-09-06T08:27:44.043Z,32.95
2022-09-06T08:30:15.150Z,27.20
2022-09-06T08:32:45.412Z,23.48
2022-09-06T08:35:16.650Z,25.33
2022-09-06T08:37:51.488Z,29.90
2022-09-06T08:40:25.301Z,28.30
2022-09-06T08:45:26.460Z,31.40
2022-09-06T08:47:58.203Z,29.27
2022-09-06T08:50:31.840Z,32.42
2022-09-06T08:53:17.522Z,28.38
2022-09-06T08:55:54.419Z,52.03
2022-09-06T08:58:47.106Z,46.38
2022-09-06T09:01:23.436Z,57.35
2022-09-06T09:03:56.255Z,45.92
2022-09-06T09:06:28.478Z,36.13
2022-09-06T09:09:07.935Z,44.22
2022-09-06T09:11:39.225Z,34.67
2022-09-06T09:14:19.509Z,35.67
2022-09-06T09:16:53.884Z,39.17
2022-09-06T09:19:24.397Z,39.95
2022-09-06T09:21:55.011Z,53.15
2022-09-06T09:24:28.056Z,41.53
2022-09-06T09:29:36.119Z,38.88
2022-09-06T09:32:08.732Z,46.05
2022-09-06T09:34:41.264Z,21.00
2022-09-06T09:40:16.690Z,23.20
2022-09-06T09:42:48.271Z,27.58
2022-09-06T09:45:30.847Z,27.48
2022-09-06T09:48:22.418Z,14.63
2022-09-06T09:50:52.791Z,21.55
2022-09-06T09:53:26.757Z,21.92
2022-09-06T09:56:03.396Z,16.98
2022-09-06T09:58:39.829Z,3.85
2022-09-06T10:01:22.046Z,9.75
2022-09-06T10:09:41.870Z,16.45
2022-09-06T10:12:19.916Z,24.65
2022-09-06T10:14:51.805Z,14.60
2022-09-06T10:17:24.974Z,15.20
2022-09-06T10:19:57.047Z,3.30
2022-09-06T10:22:33.039Z,5.80
2022-09-06T10:25:26.280Z,6.65
2022-09-06T10:28:29.359Z,6.25
2022-09-06T10:31:36.020Z,16.60
2022-09-06T10:34:19.292Z,21.17
2022-09-06T10:36:57.372Z,3.58
2022-09-06T10:39:45.578Z,11.05
2022-09-06T10:42:27.655Z,5.88
2022-09-06T10:45:13.070Z,15.43
2022-09-06T10:47:59.261Z,8.88
2022-09-06T10:50:37.913Z,19.35
2022-09-06T10:53:13.946Z,3.35
2022-09-06T10:55:48.257Z,9.65
2022-09-06T10:58:27.673Z,3.15
2022-09-06T11:00:59.238Z,3.10
2022-09-06T11:03:53.710Z,16.63
2022-09-06T11:06:32.726Z,19.27
2022-09-06T11:09:10.987Z,3.03
2022-09-06T11:11:48.487Z,5.43
2022-09-06T11:14:19.166Z,2.92
2022-09-06T11:16:54.325Z,6.32
2022-09-06T11:19:32.606Z,4.85
2022-09-06T11:22:35.968Z,5.35
2022-09-06T11:25:37.899Z,9.63
2022-09-06T11:28:13.638Z,9.68
2022-09-06T11:30:48.952Z,19.42
2022-09-06T11:33:28.092Z,15.70
2022-09-06T11:36:21.197Z,15.13
2022-09-06T11:38:58.663Z,10.27
2022-09-06T11:41:33.998Z,13.23
2022-09-06T11:44:05.157Z,10.40
2022-09-06T11:47:07.853Z,8.75
2022-09-06T11:49:42.156Z,12.88
2022-09-06T11:53:00.637Z,14.80
2022-09-06T11:55:43.228Z,13.57
2022-09-06T11:58:27.044Z,6.72
2022-09-06T12:01:27.444Z,6.13
2022-09-06T12:04:07.156Z,8.68
2022-09-06T12:06:40.902Z,14.20
2022-09-06T12:09:37.425Z,18.65
2022-09-06T12:12:16.344Z,5.95
2022-09-06T12:14:49.530Z,7.30
2022-09-06T12:17:24.017Z,2.75
2022-09-06T12:19:58.079Z,3.28
2022-09-06T12:23:07.046Z,12.02
2022-09-06T12:25:56.439Z,8.63
2022-09-06T12:28:48.160Z,3.58
2022-09-06T12:31:43.234Z,14.05
2022-09-06T12:34:17.038Z,12.05
2022-09-06T12:36:57.356Z,7.95
2022-09-06T12:39:28.271Z,12.57
2022-09-06T12:42:01.006Z,6.28
2022-09-06T12:44:39.036Z,7.97
2022-09-06T12:47:15.556Z,5.97
2022-09-06T12:49:46.143Z,14.68
2022-09-06T12:52:22.181Z,22.05
2022-09-06T12:54:54.539Z,8.55
2022-09-06T12:57:28.364Z,8.93
2022-09-06T13:00:04.105Z,3.35
2022-09-06T13:02:44.297Z,5.55
2022-09-06T13:05:16.832Z,15.60
2022-09-06T13:07:50.429Z,16.77
2022-09-06T13:10:25.894Z,21.48
2022-09-06T13:12:58.917Z,16.38
2022-09-06T13:18:27.474Z,9.63
2022-09-06T13:21:03.551Z,7.43
2022-09-06T13:23:43.920Z,5.47
2022-09-06T13:26:14.695Z,6.47
2022-09-06T13:28:45.266Z,5.65
2022-09-06T13:31:26.486Z,3.95
2022-09-06T13:34:00.326Z,5.43
2022-09-06T13:36:33.226Z,19.42
2022-09-06T13:39:04.508Z,24.52
2022-09-06T13:41:42.583Z,11.13
2022-09-06T13:44:30.385Z,10.98
2022-09-06T13:47:05.135Z,3.65
2022-09-06T13:49:36.427Z,4.90
2022-09-06T13:52:08.519Z,7.13
2022-09-06T13:54:40.418Z,3.70
2022-09-06T13:57:10.887Z,5.65
2022-09-06T13:59:43.031Z,2.67
2022-09-06T14:02:21.248Z,7.43
2022-09-06T14:04:51.830Z,4.43
2022-09-06T14:07:22.430Z,6.18
2022-09-06T14:09:53.120Z,5.55
2022-09-06T14:12:23.852Z,4.40
2022-09-06T14:14:54.349Z,3.28
2022-09-06T14:17:28.573Z,7.13
2022-09-06T14:20:00.447Z,3.05
2022-09-06T14:22:31.565Z,5.72
2022-09-06T14:25:04.549Z,3.95
2022-09-06T14:30:10.694Z,5.28
2022-09-06T14:32:43.957Z,4.65
2022-09-06T14:35:17.466Z,7.88
2022-09-06T14:37:53.612Z,5.85
2022-09-06T14:40:25.163Z,5.78
2022-09-06T14:42:57.263Z,9.57
2022-09-06T14:45:31.046Z,7.67
2022-09-06T14:48:12.357Z,12.85
2022-09-06T14:50:42.942Z,7.93
2022-09-06T14:53:38.887Z,14.30
2022-09-06T14:56:08.973Z,10.48
2022-09-06T14:58:41.364Z,8.13
2022-09-06T15:01:14.845Z,11.38
2022-09-06T15:03:54.182Z,16.98
2022-09-06T15:06:33.338Z,4.88
2022-09-06T15:09:07.358Z,3.38
2022-09-06T15:11:40.167Z,5.30
2022-09-06T15:14:16.189Z,16.75
2022-09-06T15:16:48.973Z,10.60
2022-09-06T15:19:25.633Z,14.65
2022-09-06T15:22:06.386Z,12.32
2022-09-06T15:24:43.869Z,17.90
2022-09-06T15:27:14.127Z,6.28
2022-09-06T15:29:50.131Z,13.60
2022-09-06T15:32:33.096Z,3.03
2022-09-06T15:35:34.314Z,21.30
2022-09-06T15:38:11.133Z,25.13
2022-09-06T15:40:47.919Z,23.63
2022-09-06T15:43:26.019Z,17.50
2022-09-06T15:46:00.965Z,20.00
2022-09-06T15:48:41.467Z,14.90
2022-09-06T15:51:22.192Z,13.25
2022-09-06T15:54:00.030Z,22.40
2022-09-06T15:56:31.008Z,12.15
2022-09-06T15:59:01.574Z,14.32
2022-09-06T16:01:34.199Z,16.90
2022-09-06T16:04:07.216Z,14.02
2022-09-06T16:09:15.231Z,16.73
2022-09-06T16:11:50.428Z,17.15
2022-09-06T16:14:22.383Z,6.78
2022-09-06T16:16:55.209Z,8.27
2022-09-06T16:19:26.143Z,9.23
2022-09-06T16:21:59.378Z,10.05
2022-09-06T16:24:30.105Z,16.45
2022-09-06T16:27:00.740Z,10.13
2022-09-06T16:29:32.024Z,22.00
2022-09-06T16:32:02.476Z,22.27
2022-09-06T16:34:32.910Z,17.40
2022-09-06T16:37:08.101Z,12.30
2022-09-06T16:39:38.654Z,23.13
2022-09-06T16:42:10.388Z,18.98
2022-09-06T16:44:41.559Z,17.42
2022-09-06T16:47:15.995Z,12.45
2022-09-06T16:49:47.440Z,14.00
2022-09-06T16:52:20.485Z,9.32
2022-09-06T16:57:21.811Z,12.82
2022-09-06T16:59:52.645Z,14.82
2022-09-06T17:02:23.195Z,8.07
2022-09-06T17:04:54.174Z,25.40
2022-09-06T17:07:27.628Z,35.33
2022-09-06T17:09:58.243Z,14.38
2022-09-06T17:12:29.521Z,20.70
2022-09-06T17:14:59.854Z,26.52
2022-09-06T17:17:27.954Z,22.05
2022-09-06T17:19:58.479Z,10.35
2022-09-06T17:22:31.517Z,26.92
2022-09-06T17:25:02.127Z,20.88
2022-09-06T17:27:32.995Z,12.27
2022-09-06T17:30:04.277Z,20.80
2022-09-06T17:32:38.032Z,19.48
2022-09-06T17:35:12.026Z,23.42
2022-09-06T17:37:45.863Z,5.72
2022-09-06T17:40:16.477Z,22.35
2022-09-06T17:42:47.716Z,10.80
2022-09-06T17:45:18.855Z,8.45
2022-09-06T17:47:50.278Z,11.52
2022-09-06T17:50:20.614Z,7.80
2022-09-06T17:52:55.957Z,20.83
2022-09-06T17:55:27.131Z,23.05
2022-09-06T17:57:57.353Z,24.33
2022-09-06T18:00:29.082Z,23.42
2022-09-06T18:02:59.758Z,15.57
2022-09-06T18:05:30.170Z,8.75
2022-09-06T18:08:03.586Z,12.90
2022-09-06T18:13:07.537Z,19.23
2022-09-06T18:15:42.734Z,20.75
2022-09-06T18:18:13.072Z,17.58
2022-09-06T18:20:43.459Z,10.57
2022-09-06T18:23:26.190Z,14.00
2022-09-06T18:26:01.314Z,18.40
2022-09-06T18:28:32.788Z,14.90
2022-09-06T18:31:06.393Z,10.82
2022-09-06T18:33:38.114Z,12.43
2022-09-06T18:36:10.371Z,16.33
2022-09-06T18:38:44.348Z,10.23
2022-09-06T18:41:31.199Z,17.23
2022-09-06T18:44:03.262Z,16.05
2022-09-06T18:46:34.513Z,24.40
2022-09-06T18:49:06.397Z,10.00
2022-09-06T18:51:44.298Z,18.80
2022-09-06T18:54:17.721Z,10.80
2022-09-06T18:59:19.914Z,13.85
2022-09-06T19:01:50.651Z,13.00
2022-09-06T19:04:21.238Z,12.95
2022-09-06T19:06:52.460Z,11.98
2022-09-06T19:09:25.341Z,9.85
2022-09-06T19:11:56.129Z,9.15
2022-09-06T19:14:26.572Z,7.20
2022-09-06T19:16:57.053Z,13.48
2022-09-06T19:19:29.781Z,11.43
2022-09-06T19:22:00.239Z,7.60
2022-09-06T19:24:33.956Z,9.18
2022-09-06T19:27:04.649Z,9.63
2022-09-06T19:29:35.285Z,7.57
2022-09-06T19:32:06.654Z,9.10
2022-09-06T19:34:37.529Z,7.93
2022-09-06T19:37:08.303Z,15.52
2022-09-06T19:39:41.642Z,7.13
2022-09-06T19:44:42.374Z,8.85
2022-09-06T19:47:12.837Z,7.70
2022-09-06T19:49:43.232Z,6.40
2022-09-06T19:52:13.799Z,9.32
2022-09-06T19:54:47.045Z,9.43
2022-09-06T19:57:17.288Z,6.35
2022-09-06T19:59:50.485Z,9.50
2022-09-06T20:02:21.289Z,9.82
2022-09-06T20:04:51.795Z,7.07
2022-09-06T20:07:22.055Z,6.68
2022-09-06T20:09:54.943Z,7.55
2022-09-06T20:12:25.409Z,12.82
2022-09-06T20:14:57.835Z,7.55
2022-09-06T20:17:35.523Z,11.65
2022-09-06T20:20:06.600Z,12.43
2022-09-06T20:22:36.857Z,7.45
2022-09-06T20:25:12.101Z,9.70
2022-09-06T20:27:44.646Z,7.78
2022-09-06T20:30:16.619Z,6.90
2022-09-06T20:32:46.971Z,8.32
2022-09-06T20:35:17.553Z,11.82
2022-09-06T20:37:47.922Z,11.57
2022-09-06T20:40:21.470Z,7.10
2022-09-06T20:42:51.870Z,9.75
2022-09-06T20:45:26.148Z,8.77
2022-09-06T20:47:57.817Z,13.30
2022-09-06T20:50:29.290Z,10.85
2022-09-06T20:53:00.013Z,8.88
2022-09-06T20:55:33.271Z,5.53
2022-09-06T20:58:03.926Z,11.75
2022-09-06T21:00:34.487Z,18.13
2022-09-06T21:03:05.207Z,8.70
2022-09-06T21:05:35.552Z,5.78
2022-09-06T21:08:06.072Z,13.57
2022-09-06T21:10:39.615Z,7.80
2022-09-06T21:13:09.995Z,13.80
2022-09-06T21:15:42.418Z,10.57
2022-09-06T21:18:13.235Z,11.35
2022-09-06T21:20:43.774Z,12.77
2022-09-06T21:23:14.717Z,6.60
2022-09-06T21:25:55.738Z,17.15
2022-09-06T21:28:26.849Z,12.30
2022-09-06T21:31:05.181Z,11.85
2022-09-06T21:33:36.159Z,8.27
2022-09-06T21:36:09.213Z,9.73
2022-09-06T21:38:42.240Z,11.75
2022-09-06T21:41:16.745Z,8.27
2022-09-06T21:43:47.466Z,8.82
2022-09-06T21:46:19.776Z,9.38
2022-09-06T21:48:52.091Z,11.68
2022-09-06T21:51:24.359Z,11.90
2022-09-06T21:53:56.110Z,8.32
2022-09-06T21:56:30.019Z,10.38
2022-09-06T21:59:01.804Z,10.95
2022-09-06T22:01:34.769Z,15.02
2022-09-06T22:04:06.328Z,7.18
2022-09-06T22:06:38.310Z,14.27
2022-09-06T22:09:15.320Z,8.57
2022-09-06T22:11:48.746Z,14.27
2022-09-06T22:16:49.061Z,10.93
2022-09-06T22:19:19.424Z,7.18
2022-09-06T22:21:50.158Z,8.00
2022-09-06T22:24:20.835Z,9.25
2022-09-06T22:26:54.420Z,8.60
2022-09-06T22:29:24.621Z,11.70
2022-09-06T22:31:55.239Z,10.90
2022-09-06T22:34:25.882Z,7.18
2022-09-06T22:36:56.361Z,16.42
2022-09-06T22:39:26.986Z,7.10
2022-09-06T22:42:01.004Z,10.10
2022-09-06T22:44:31.819Z,12.77
2022-09-06T22:47:02.762Z,10.27
2022-09-06T22:49:33.277Z,7.93
2022-09-06T22:52:03.930Z,13.95
2022-09-06T22:54:34.494Z,7.18
2022-09-06T22:57:08.439Z,8.63
2022-09-06T22:59:39.546Z,11.75
2022-09-06T23:02:10.078Z,15.98
2022-09-06T23:04:40.660Z,8.93
2022-09-06T23:07:11.745Z,13.82
2022-09-06T23:09:42.517Z,11.27
2022-09-06T23:12:16.016Z,9.80
2022-09-06T23:17:17.139Z,13.77
2022-09-06T23:19:47.632Z,12.18
2022-09-06T23:22:18.432Z,7.78
2022-09-06T23:24:49.185Z,9.35
2022-09-06T23:27:22.920Z,8.30
2022-09-06T23:29:53.911Z,8.55
2022-09-06T23:32:26.292Z,11.55
2022-09-06T23:34:56.835Z,13.02
2022-09-06T23:37:27.701Z,10.73
2022-09-06T23:39:57.953Z,20.33
2022-09-06T23:42:31.422Z,10.27
2022-09-06T23:47:32.465Z,10.77
2022-09-06T23:50:03.487Z,8.45
2022-09-06T23:52:33.749Z,9.75
2022-09-06T23:55:04.175Z,11.85
2022-09-06T23:57:37.664Z,12.70
